createdAt,value
2018-05-23T00:02:14.113Z,61.26
2018-05-23T00:04:42.466Z,61.18
2018-05-23T00:07:11.487Z,61.75
2018-05-23T00:09:39.835Z,61.74
2018-05-23T00:12:08.211Z,61.84
2018-05-23T00:14:37.460Z,61.70
2018-05-23T00:17:05.896Z,61.83
2018-05-23T00:19:34.465Z,62.26
2018-05-23T00:22:03.081Z,62.47
2018-05-23T00:24:33.432Z,62.26
2018-05-23T00:27:01.753Z,62.72
2018-05-23T00:29:30.513Z,63.08
2018-05-23T00:31:58.848Z,63.33
2018-05-23T00:34:27.195Z,64.21
2018-05-23T00:36:56.146Z,64.49
2018-05-23T00:39:24.537Z,64.91
2018-05-23T00:41:52.825Z,65.50
2018-05-23T00:44:22.018Z,65.73
2018-05-23T00:46:50.348Z,65.79
2018-05-23T00:49:18.658Z,65.76
2018-05-23T00:51:46.994Z,65.84
2018-05-23T00:54:15.302Z,65.74
2018-05-23T00:56:43.670Z,65.86
2018-05-23T00:59:12.943Z,65.81
2018-05-23T01:01:41.303Z,65.82
2018-05-23T01:04:09.607Z,65.56
2018-05-23T01:06:38.144Z,65.64
2018-05-23T01:09:06.527Z,65.56
2018-05-23T01:11:36.030Z,66.33
2018-05-23T01:14:04.415Z,66.19
2018-05-23T01:16:32.729Z,66.46
2018-05-23T01:19:01.041Z,67.24
2018-05-23T01:21:29.382Z,67.43
2018-05-23T01:23:57.698Z,67.63
2018-05-23T01:26:26.014Z,67.92
2018-05-23T01:28:55.123Z,68.08
2018-05-23T01:31:23.452Z,68.35
2018-05-23T01:33:51.756Z,68.50
2018-05-23T01:36:21.624Z,68.68
2018-05-23T01:38:49.949Z,68.57
2018-05-23T01:41:18.269Z,68.62
2018-05-23T01:43:46.639Z,68.50
2018-05-23T01:46:15.013Z,68.39
2018-05-23T01:48:55.083Z,69.09
2018-05-23T01:51:23.406Z,69.16
2018-05-23T01:53:51.737Z,68.63
2018-05-23T01:56:20.196Z,69.18
2018-05-23T01:58:48.501Z,69.66
2018-05-23T02:01:16.845Z,69.50
2018-05-23T02:03:45.284Z,68.98
2018-05-23T02:06:13.605Z,68.48
2018-05-23T02:08:41.963Z,68.32
2018-05-23T02:11:10.364Z,68.59
2018-05-23T02:13:38.717Z,68.36
2018-05-23T02:16:07.121Z,68.16
2018-05-23T02:18:35.513Z,68.10
2018-05-23T02:21:03.896Z,68.49
2018-05-23T02:23:32.351Z,68.26
2018-05-23T02:26:00.767Z,68.10
2018-05-23T02:28:29.114Z,67.73
2018-05-23T02:30:57.407Z,67.45
2018-05-23T02:33:25.830Z,66.94
2018-05-23T02:35:54.358Z,66.72
2018-05-23T02:38:22.676Z,66.47
2018-05-23T02:40:51.109Z,66.55
2018-05-23T02:43:19.437Z,67.06
2018-05-23T02:45:47.789Z,67.19
2018-05-23T02:48:16.175Z,67.24
2018-05-23T02:50:44.537Z,67.78
2018-05-23T02:53:12.919Z,67.75
2018-05-23T02:55:41.923Z,67.80
2018-05-23T02:58:10.294Z,67.86
2018-05-23T03:00:38.678Z,68.51
2018-05-23T03:03:07.518Z,69.17
2018-05-23T03:05:35.822Z,70.24
2018-05-23T03:08:04.115Z,70.65
2018-05-23T03:10:32.485Z,70.72
2018-05-23T03:13:00.790Z,70.82
2018-05-23T03:15:29.117Z,70.53
2018-05-23T03:17:57.469Z,70.19
2018-05-23T03:20:25.788Z,70.11
2018-05-23T03:22:54.085Z,70.12
2018-05-23T03:25:22.438Z,70.02
2018-05-23T03:27:50.765Z,70.07
2018-05-23T03:30:19.094Z,69.99
2018-05-23T03:32:47.556Z,69.79
2018-05-23T03:35:15.865Z,69.64
2018-05-23T03:37:44.240Z,69.60
2018-05-23T03:40:12.768Z,69.41
2018-05-23T03:42:41.103Z,69.25
2018-05-23T03:45:09.485Z,68.99
2018-05-23T03:47:37.844Z,69.38
2018-05-23T03:50:06.236Z,69.06
2018-05-23T03:52:34.605Z,69.20
2018-05-23T03:55:03.013Z,69.49
2018-05-23T03:57:31.342Z,69.22
2018-05-23T04:00:11.472Z,68.79
2018-05-23T04:02:51.804Z,68.90
2018-05-23T04:05:31.828Z,68.97
2018-05-23T04:08:01.042Z,68.59
2018-05-23T04:10:29.382Z,68.31
2018-05-23T04:12:57.829Z,68.05
2018-05-23T04:15:26.249Z,67.17
2018-05-23T04:17:54.492Z,67.10
2018-05-23T04:20:23.013Z,66.97
2018-05-23T04:22:51.332Z,66.78
2018-05-23T04:25:19.677Z,66.26
2018-05-23T04:27:48.545Z,66.06
2018-05-23T04:30:16.894Z,65.73
2018-05-23T04:32:45.400Z,65.26
2018-05-23T04:35:13.959Z,65.07
2018-05-23T04:37:42.311Z,65.01
2018-05-23T04:40:10.689Z,64.75
2018-05-23T04:42:39.863Z,65.43
2018-05-23T04:45:08.383Z,65.73
2018-05-23T04:47:36.971Z,64.54
2018-05-23T04:50:06.333Z,63.52
2018-05-23T04:52:34.804Z,62.97
2018-05-23T04:55:03.273Z,62.78
2018-05-23T04:57:32.612Z,62.18
2018-05-23T05:00:00.979Z,62.35
2018-05-23T05:02:29.227Z,62.83
2018-05-23T05:04:57.817Z,62.45
2018-05-23T05:07:26.180Z,62.28
2018-05-23T05:09:54.531Z,61.65
2018-05-23T05:12:23.666Z,61.52
2018-05-23T05:14:51.963Z,61.59
2018-05-23T05:17:20.302Z,61.07
2018-05-23T05:19:48.722Z,59.85
2018-05-23T05:22:17.214Z,60.15
2018-05-23T05:24:45.624Z,59.85
2018-05-23T05:27:13.987Z,59.12
2018-05-23T05:29:42.415Z,58.14
2018-05-23T05:32:10.742Z,57.65
2018-05-23T05:34:39.105Z,57.70
2018-05-23T05:37:07.541Z,57.53
2018-05-23T05:39:35.878Z,56.93
2018-05-23T05:42:04.240Z,55.85
2018-05-23T05:44:32.559Z,56.13
2018-05-23T05:47:00.934Z,55.62
2018-05-23T05:49:29.457Z,55.23
2018-05-23T05:51:57.828Z,54.33
2018-05-23T05:54:26.154Z,53.80
2018-05-23T05:56:54.583Z,52.76
2018-05-23T05:59:22.884Z,53.04
2018-05-23T06:01:51.321Z,53.13
2018-05-23T06:04:19.565Z,52.59
2018-05-23T06:06:47.897Z,52.74
2018-05-23T06:09:16.235Z,52.65
2018-05-23T06:11:44.654Z,52.33
2018-05-23T06:14:13.012Z,51.63
2018-05-23T06:16:41.413Z,51.90
2018-05-23T06:19:09.963Z,51.61
2018-05-23T06:21:38.409Z,50.46
2018-05-23T06:24:06.796Z,49.94
2018-05-23T06:26:35.213Z,49.63
2018-05-23T06:29:03.590Z,49.42
2018-05-23T06:31:31.921Z,49.41
2018-05-23T06:34:00.551Z,49.43
2018-05-23T06:36:28.883Z,48.92
2018-05-23T06:38:57.208Z,48.95
2018-05-23T06:41:25.596Z,48.86
2018-05-23T06:43:53.937Z,49.14
2018-05-23T06:46:22.256Z,48.48
2018-05-23T06:48:50.659Z,49.37
2018-05-23T06:51:19.041Z,48.42
2018-05-23T06:53:47.415Z,50.24
2018-05-23T06:56:16.356Z,50.37
2018-05-23T06:58:44.836Z,51.18
2018-05-23T07:01:13.390Z,51.13
2018-05-23T07:03:42.019Z,52.41
2018-05-23T07:06:10.526Z,51.87
2018-05-23T07:08:38.963Z,51.53
2018-05-23T07:11:07.569Z,51.25
2018-05-23T07:13:35.870Z,51.10
2018-05-23T07:16:08.581Z,50.37
2018-05-23T07:18:38.544Z,50.41
2018-05-23T07:21:06.971Z,50.39
2018-05-23T07:23:35.367Z,50.11
2018-05-23T07:26:03.743Z,49.70
2018-05-23T07:28:32.075Z,52.30
2018-05-23T07:31:00.396Z,50.92
2018-05-23T07:33:29.320Z,49.14
2018-05-23T07:35:57.638Z,48.14
2018-05-23T07:38:25.985Z,46.79
2018-05-23T07:40:54.702Z,45.59
2018-05-23T07:43:23.218Z,46.75
2018-05-23T07:45:51.562Z,46.51
2018-05-23T07:48:20.695Z,47.38
2018-05-23T07:50:49.036Z,49.26
2018-05-23T07:53:17.351Z,50.10
2018-05-23T07:55:45.714Z,50.74
2018-05-23T07:58:14.095Z,51.11
2018-05-23T08:00:42.486Z,52.23
2018-05-23T08:03:11.081Z,52.65
2018-05-23T08:05:39.412Z,53.48
2018-05-23T08:08:07.809Z,54.22
2018-05-23T08:10:43.351Z,54.49
2018-05-23T08:13:12.449Z,54.43
2018-05-23T08:15:40.933Z,54.31
2018-05-23T08:18:09.339Z,54.05
2018-05-23T08:20:37.681Z,53.56
2018-05-23T08:23:08.258Z,53.18
2018-05-23T08:25:36.618Z,53.74
2018-05-23T08:28:05.932Z,54.70
2018-05-23T08:30:34.353Z,55.02
2018-05-23T08:33:02.669Z,54.25
2018-05-23T08:35:31.002Z,53.34
2018-05-23T08:37:59.607Z,53.66
2018-05-23T08:40:27.907Z,53.25
2018-05-23T08:42:56.222Z,50.64
2018-05-23T08:45:24.564Z,49.00
2018-05-23T08:47:52.871Z,49.33
2018-05-23T08:50:21.196Z,52.74
2018-05-23T08:52:49.700Z,51.82
2018-05-23T08:55:18.009Z,51.93
2018-05-23T08:57:46.323Z,52.01
2018-05-23T09:00:14.739Z,50.48
2018-05-23T09:02:43.062Z,48.77
2018-05-23T09:05:11.392Z,48.29
2018-05-23T09:07:39.776Z,48.28
2018-05-23T09:10:08.107Z,48.80
2018-05-23T09:12:36.551Z,48.23
2018-05-23T09:15:05.649Z,47.47
2018-05-23T09:17:33.973Z,47.26
2018-05-23T09:20:02.304Z,46.76
2018-05-23T09:22:32.079Z,46.63
2018-05-23T09:25:00.395Z,46.77
2018-05-23T09:27:28.718Z,46.67
2018-05-23T09:29:57.921Z,46.53
2018-05-23T09:32:26.268Z,46.27
2018-05-23T09:34:54.592Z,45.43
2018-05-23T09:37:23.865Z,45.26
2018-05-23T09:39:52.170Z,43.78
2018-05-23T09:42:20.601Z,42.76
2018-05-23T09:44:49.750Z,43.01
2018-05-23T09:47:18.130Z,41.34
2018-05-23T09:49:46.557Z,42.27
2018-05-23T09:52:14.932Z,41.97
2018-05-23T09:54:43.248Z,39.02
2018-05-23T09:57:11.641Z,37.80
2018-05-23T09:59:40.113Z,37.32
2018-05-23T10:02:08.508Z,39.51
2018-05-23T10:04:37.080Z,39.99
2018-05-23T10:07:06.362Z,42.97
2018-05-23T10:09:34.729Z,42.79
2018-05-23T10:12:03.054Z,42.89
2018-05-23T10:14:31.437Z,42.61
2018-05-23T10:16:59.850Z,40.64
2018-05-23T10:19:28.170Z,40.06
2018-05-23T10:21:56.588Z,40.00
2018-05-23T10:24:24.915Z,38.57
2018-05-23T10:26:53.210Z,37.31
2018-05-23T10:29:21.574Z,37.31
2018-05-23T10:31:50.147Z,37.32
2018-05-23T10:34:18.534Z,36.57
2018-05-23T10:36:46.923Z,35.57
2018-05-23T10:39:15.299Z,35.46
2018-05-23T10:41:43.678Z,35.43
2018-05-23T10:44:12.806Z,36.01
2018-05-23T10:46:41.147Z,35.71
2018-05-23T10:49:09.487Z,33.81
2018-05-23T10:51:38.390Z,33.20
2018-05-23T10:54:06.570Z,32.69
2018-05-23T10:56:34.966Z,34.28
2018-05-23T10:59:03.349Z,33.25
2018-05-23T11:01:31.722Z,34.29
2018-05-23T11:04:00.045Z,33.28
2018-05-23T11:06:28.834Z,34.43
2018-05-23T11:08:57.175Z,36.48
2018-05-23T11:11:25.486Z,38.15
2018-05-23T11:13:54.276Z,37.40
2018-05-23T11:16:22.592Z,36.29
2018-05-23T11:18:50.905Z,35.46
2018-05-23T11:21:19.376Z,35.45
2018-05-23T11:23:47.677Z,33.77
2018-05-23T11:26:16.028Z,33.19
2018-05-23T11:28:45.157Z,32.92
2018-05-23T11:31:13.562Z,30.72
2018-05-23T11:33:42.059Z,31.54
2018-05-23T11:36:10.580Z,31.20
2018-05-23T11:38:39.197Z,32.20
2018-05-23T11:41:07.593Z,31.87
2018-05-23T11:43:36.061Z,30.48
2018-05-23T11:46:04.393Z,30.54
2018-05-23T11:48:33.405Z,29.21
2018-05-23T11:51:03.036Z,29.56
2018-05-23T11:53:31.390Z,30.52
2018-05-23T11:55:59.694Z,29.75
2018-05-23T11:58:28.590Z,30.65
2018-05-23T12:00:56.906Z,30.13
2018-05-23T12:03:25.246Z,30.02
2018-05-23T12:05:53.694Z,29.35
2018-05-23T12:08:22.017Z,30.56
2018-05-23T12:10:50.332Z,29.44
2018-05-23T12:13:19.655Z,29.07
2018-05-23T12:15:47.975Z,28.38
2018-05-23T12:18:16.430Z,30.49
2018-05-23T12:20:48.126Z,31.33
2018-05-23T12:23:25.260Z,30.74
2018-05-23T12:25:55.587Z,28.96
2018-05-23T12:28:24.024Z,28.05
2018-05-23T12:30:54.355Z,26.94
2018-05-23T12:33:25.709Z,27.11
2018-05-23T12:35:54.111Z,27.17
2018-05-23T12:38:22.395Z,27.85
2018-05-23T12:40:50.773Z,27.25
2018-05-23T12:43:22.878Z,25.82
2018-05-23T12:45:51.485Z,27.37
2018-05-23T12:48:20.218Z,26.41
2018-05-23T12:50:48.549Z,26.62
2018-05-23T12:53:17.503Z,26.92
2018-05-23T12:55:45.830Z,26.44
2018-05-23T12:58:14.206Z,25.93
2018-05-23T13:00:44.559Z,26.61
2018-05-23T13:03:12.909Z,25.91
2018-05-23T13:05:41.279Z,25.03
2018-05-23T13:08:09.652Z,25.03
2018-05-23T13:10:38.002Z,25.43
2018-05-23T13:13:06.349Z,25.92
2018-05-23T13:15:34.724Z,25.85
2018-05-23T13:18:03.074Z,26.06
2018-05-23T13:20:31.413Z,27.67
2018-05-23T13:23:00.544Z,28.81
2018-05-23T13:25:28.853Z,28.72
2018-05-23T13:27:57.161Z,29.05
2018-05-23T13:30:25.825Z,28.32
2018-05-23T13:32:54.225Z,29.45
2018-05-23T13:35:22.525Z,29.86
2018-05-23T13:37:50.918Z,29.31
2018-05-23T13:40:19.198Z,27.95
2018-05-23T13:42:47.540Z,27.45
2018-05-23T13:45:16.169Z,27.62
2018-05-23T13:47:47.768Z,26.93
2018-05-23T13:50:17.259Z,28.04
2018-05-23T13:52:45.615Z,27.70
2018-05-23T13:55:14.025Z,27.03
2018-05-23T13:57:43.191Z,26.42
2018-05-23T14:00:11.638Z,25.97
2018-05-23T14:02:39.968Z,25.34
2018-05-23T14:05:08.826Z,25.76
2018-05-23T14:07:37.181Z,25.66
2018-05-23T14:10:05.514Z,28.36
2018-05-23T14:12:33.895Z,28.22
2018-05-23T14:15:02.247Z,26.97
2018-05-23T14:17:30.567Z,26.48
2018-05-23T14:20:03.249Z,27.16
2018-05-23T14:22:33.384Z,28.32
2018-05-23T14:25:05.783Z,28.72
2018-05-23T14:27:34.368Z,28.40
2018-05-23T14:30:02.917Z,27.93
2018-05-23T14:32:32.188Z,29.16
2018-05-23T14:35:01.424Z,27.24
2018-05-23T14:37:35.150Z,26.93
2018-05-23T14:40:03.439Z,27.59
2018-05-23T14:42:31.781Z,26.62
2018-05-23T14:45:00.609Z,26.25
2018-05-23T14:47:28.943Z,27.46
2018-05-23T14:49:57.327Z,26.44
2018-05-23T14:52:25.676Z,25.79
2018-05-23T14:54:53.987Z,26.34
2018-05-23T14:57:22.293Z,27.06
2018-05-23T14:59:51.492Z,26.41
2018-05-23T15:02:19.911Z,27.39
2018-05-23T15:04:48.158Z,28.11
2018-05-23T15:07:16.792Z,26.07
2018-05-23T15:09:45.154Z,25.95
2018-05-23T15:12:13.498Z,26.37
2018-05-23T15:14:41.981Z,26.47
2018-05-23T15:17:10.488Z,28.59
2018-05-23T15:19:38.950Z,28.93
2018-05-23T15:22:07.418Z,28.55
2018-05-23T15:24:35.809Z,28.60
2018-05-23T15:27:04.129Z,28.72
2018-05-23T15:29:32.509Z,28.10
2018-05-23T15:32:00.885Z,28.03
2018-05-23T15:34:29.875Z,29.56
2018-05-23T15:36:59.833Z,29.99
2018-05-23T15:39:28.169Z,29.19
2018-05-23T15:41:56.487Z,28.27
2018-05-23T15:44:25.650Z,27.96
2018-05-23T15:46:53.997Z,29.09
2018-05-23T15:49:22.345Z,28.80
2018-05-23T15:51:51.509Z,27.85
2018-05-23T15:54:19.890Z,26.44
2018-05-23T15:56:48.207Z,26.00
2018-05-23T15:59:16.595Z,26.99
2018-05-23T16:01:45.082Z,28.01
2018-05-23T16:04:13.389Z,27.36
2018-05-23T16:06:42.163Z,28.09
2018-05-23T16:09:10.521Z,28.15
2018-05-23T16:11:39.066Z,27.86
2018-05-23T16:14:07.574Z,26.71
2018-05-23T16:16:36.045Z,28.23
2018-05-23T16:19:04.388Z,28.98
2018-05-23T16:21:33.151Z,28.73
2018-05-23T16:24:01.450Z,27.04
2018-05-23T16:26:29.818Z,26.88
2018-05-23T16:28:58.856Z,27.49
2018-05-23T16:31:27.153Z,27.95
2018-05-23T16:33:55.481Z,28.10
2018-05-23T16:36:23.996Z,28.15
2018-05-23T16:38:52.312Z,28.23
2018-05-23T16:41:20.658Z,28.04
2018-05-23T16:43:49.478Z,28.42
2018-05-23T16:46:18.050Z,28.00
2018-05-23T16:48:46.408Z,28.87
2018-05-23T16:51:15.469Z,29.22
2018-05-23T16:53:43.828Z,29.42
2018-05-23T16:56:12.188Z,30.41
2018-05-23T16:58:41.872Z,31.35
2018-05-23T17:01:10.299Z,32.24
2018-05-23T17:03:38.652Z,33.00
2018-05-23T17:06:07.315Z,33.47
2018-05-23T17:08:35.792Z,34.31
2018-05-23T17:11:04.123Z,34.81
2018-05-23T17:13:32.471Z,35.64
2018-05-23T17:16:00.861Z,36.03
2018-05-23T17:18:29.189Z,36.59
2018-05-23T17:20:57.636Z,36.50
2018-05-23T17:23:25.956Z,36.36
2018-05-23T17:25:54.410Z,36.87
2018-05-23T17:28:23.617Z,36.74
2018-05-23T17:30:51.918Z,36.76
2018-05-23T17:33:20.267Z,36.91
2018-05-23T17:35:49.575Z,37.04
2018-05-23T17:38:17.889Z,37.23
2018-05-23T17:40:46.419Z,36.97
2018-05-23T17:43:15.300Z,37.05
2018-05-23T17:45:43.705Z,37.10
2018-05-23T17:48:12.002Z,36.72
2018-05-23T17:50:40.402Z,35.63
2018-05-23T17:53:08.845Z,34.96
2018-05-23T17:55:38.053Z,33.90
2018-05-23T17:58:06.822Z,33.40
2018-05-23T18:00:35.245Z,33.30
2018-05-23T18:03:03.558Z,33.29
2018-05-23T18:05:31.893Z,33.46
2018-05-23T18:08:00.192Z,33.14
2018-05-23T18:10:28.550Z,32.55
2018-05-23T18:12:56.889Z,32.73
2018-05-23T18:15:25.254Z,33.42
2018-05-23T18:17:53.662Z,34.10
2018-05-23T18:20:23.359Z,34.67
2018-05-23T18:22:51.684Z,34.79
2018-05-23T18:25:20.007Z,34.68
2018-05-23T18:27:48.364Z,34.68
2018-05-23T18:30:16.772Z,35.21
2018-05-23T18:32:45.125Z,35.37
2018-05-23T18:35:13.581Z,35.79
2018-05-23T18:37:41.982Z,36.22
2018-05-23T18:40:10.561Z,36.57
2018-05-23T18:42:39.849Z,36.75
2018-05-23T18:45:08.298Z,37.10
2018-05-23T18:47:37.643Z,37.33
2018-05-23T18:50:07.683Z,37.67
2018-05-23T18:52:36.123Z,37.71
2018-05-23T18:55:04.458Z,37.62
2018-05-23T18:57:33.681Z,37.64
2018-05-23T19:00:02.014Z,38.04
2018-05-23T19:02:30.362Z,39.19
2018-05-23T19:04:59.583Z,39.78
2018-05-23T19:07:27.906Z,40.48
2018-05-23T19:09:56.247Z,40.97
2018-05-23T19:12:24.617Z,41.28
2018-05-23T19:14:52.948Z,41.65
2018-05-23T19:17:21.301Z,41.89
2018-05-23T19:19:49.931Z,42.25
2018-05-23T19:22:18.159Z,42.48
2018-05-23T19:24:46.584Z,42.43
2018-05-23T19:27:15.487Z,42.58
2018-05-23T19:29:43.908Z,42.99
2018-05-23T19:32:13.365Z,43.53
2018-05-23T19:34:42.839Z,43.51
2018-05-23T19:37:12.424Z,43.84
2018-05-23T19:39:51.406Z,43.80
2018-05-23T19:42:19.601Z,44.00
2018-05-23T19:44:47.959Z,44.51
2018-05-23T19:47:16.729Z,45.00
2018-05-23T19:49:45.032Z,45.32
2018-05-23T19:52:13.382Z,45.80
2018-05-23T19:54:41.952Z,46.46
2018-05-23T19:57:10.569Z,47.01
2018-05-23T19:59:38.904Z,47.34
2018-05-23T20:02:07.375Z,48.10
2018-05-23T20:04:35.801Z,48.05
2018-05-23T20:07:04.238Z,48.59
2018-05-23T20:09:32.611Z,48.89
2018-05-23T20:12:00.900Z,49.05
2018-05-23T20:14:29.583Z,49.38
2018-05-23T20:16:58.614Z,49.56
2018-05-23T20:19:28.030Z,49.77
2018-05-23T20:21:56.395Z,49.93
2018-05-23T20:24:24.811Z,50.13
2018-05-23T20:26:53.116Z,50.15
2018-05-23T20:29:21.548Z,50.20
2018-05-23T20:31:50.148Z,50.21
2018-05-23T20:34:18.559Z,49.92
2018-05-23T20:36:47.173Z,50.17
2018-05-23T20:39:20.395Z,50.21
2018-05-23T20:41:48.802Z,50.47
2018-05-23T20:44:18.048Z,51.06
2018-05-23T20:46:46.404Z,51.29
2018-05-23T20:49:15.301Z,51.77
2018-05-23T20:51:44.008Z,51.90
2018-05-23T20:54:12.409Z,52.18
2018-05-23T20:56:40.892Z,52.73
2018-05-23T20:59:13.337Z,53.06
2018-05-23T21:01:41.687Z,53.17
2018-05-23T21:04:10.318Z,53.29
2018-05-23T21:06:38.829Z,53.45
2018-05-23T21:09:07.327Z,53.73
2018-05-23T21:11:35.903Z,54.05
2018-05-23T21:14:04.933Z,54.32
2018-05-23T21:16:33.243Z,54.30
2018-05-23T21:19:01.593Z,54.52
2018-05-23T21:21:30.545Z,54.71
2018-05-23T21:23:58.894Z,54.91
2018-05-23T21:26:27.165Z,55.15
2018-05-23T21:28:55.547Z,55.45
2018-05-23T21:31:23.867Z,55.83
2018-05-23T21:33:52.175Z,55.89
2018-05-23T21:36:21.296Z,56.46
2018-05-23T21:38:49.607Z,56.75
2018-05-23T21:41:17.932Z,57.06
2018-05-23T21:43:46.306Z,57.67
2018-05-23T21:46:14.708Z,58.19
2018-05-23T21:48:43.050Z,58.62
2018-05-23T21:51:11.545Z,58.61
2018-05-23T21:53:39.825Z,59.06
2018-05-23T21:56:08.155Z,59.40
2018-05-23T21:58:36.884Z,59.65
2018-05-23T22:01:05.197Z,59.77
2018-05-23T22:03:33.525Z,59.56
2018-05-23T22:06:02.744Z,59.14
2018-05-23T22:08:31.067Z,59.16
2018-05-23T22:10:59.456Z,58.99
2018-05-23T22:13:27.800Z,59.00
2018-05-23T22:15:56.171Z,58.46
2018-05-23T22:18:24.548Z,57.89
2018-05-23T22:20:54.095Z,58.63
2018-05-23T22:23:22.403Z,58.46
2018-05-23T22:25:50.875Z,58.25
2018-05-23T22:28:19.972Z,58.30
2018-05-23T22:30:48.286Z,58.66
2018-05-23T22:33:16.684Z,58.89
2018-05-23T22:35:45.733Z,58.73
2018-05-23T22:38:14.142Z,58.66
2018-05-23T22:40:42.504Z,58.99
2018-05-23T22:43:11.302Z,59.05
2018-05-23T22:45:39.693Z,59.33
2018-05-23T22:48:08.047Z,59.60
2018-05-23T22:50:36.726Z,59.26
2018-05-23T22:53:05.396Z,59.08
2018-05-23T22:55:34.425Z,58.07
2018-05-23T22:58:03.858Z,58.17
2018-05-23T23:00:32.174Z,57.27
2018-05-23T23:03:00.477Z,56.47
2018-05-23T23:05:29.398Z,56.00
2018-05-23T23:07:57.724Z,55.43
2018-05-23T23:10:26.021Z,54.75
2018-05-23T23:12:54.920Z,55.43
2018-05-23T23:15:23.330Z,54.78
2018-05-23T23:17:51.656Z,55.02
2018-05-23T23:20:20.645Z,54.76
2018-05-23T23:22:48.935Z,54.76
2018-05-23T23:25:17.486Z,54.63
2018-05-23T23:27:46.989Z,54.11
2018-05-23T23:30:15.362Z,54.14
2018-05-23T23:32:43.741Z,54.42
2018-05-23T23:35:12.193Z,54.46
2018-05-23T23:37:40.596Z,55.01
2018-05-23T23:40:08.959Z,55.70
2018-05-23T23:42:37.453Z,55.57
2018-05-23T23:45:05.833Z,55.57
2018-05-23T23:47:34.165Z,55.24
2018-05-23T23:50:02.774Z,55.74
2018-05-23T23:52:31.117Z,56.02
2018-05-23T23:54:59.426Z,55.64
2018-05-23T23:57:27.753Z,55.97
2018-05-23T23:59:56.065Z,55.54
